sensor_id;sensor_type;location;lat;lon;timestamp;P1;durP1;ratioP1;P2;durP2;ratioP2
37895;SDS011;23733;53.254;10.430;2023-09-08T00:00:44;6.37;;;4.23;;
37895;SDS011;23733;53.254;10.430;2023-09-08T00:03:10;6.93;;;3.90;;
37895;SDS011;23733;53.254;10.430;2023-09-08T00:05:37;4.77;;;3.67;;
37895;SDS011;23733;53.254;10.430;2023-09-08T00:08:03;6.10;;;3.67;;
37895;SDS011;23733;53.254;10.430;2023-09-08T00:10:30;4.77;;;3.77;;
37895;SDS011;23733;53.254;10.430;2023-09-08T00:12:56;5.37;;;4.00;;
37895;SDS011;23733;53.254;10.430;2023-09-08T00:15:22;4.20;;;3.60;;
37895;SDS011;23733;53.254;10.430;2023-09-08T00:17:49;4.83;;;3.90;;
37895;SDS011;23733;53.254;10.430;2023-09-08T00:20:15;4.93;;;3.70;;
37895;SDS011;23733;53.254;10.430;2023-09-08T00:22:41;5.23;;;3.90;;
37895;SDS011;23733;53.254;10.430;2023-09-08T00:25:08;5.63;;;4.13;;
37895;SDS011;23733;53.254;10.430;2023-09-08T00:27:34;6.07;;;4.20;;
37895;SDS011;23733;53.254;10.430;2023-09-08T00:30:00;5.03;;;3.93;;
37895;SDS011;23733;53.254;10.430;2023-09-08T00:32:27;8.43;;;3.87;;
37895;SDS011;23733;53.254;10.430;2023-09-08T00:34:53;5.30;;;3.80;;
37895;SDS011;23733;53.254;10.430;2023-09-08T00:37:20;6.67;;;3.60;;
37895;SDS011;23733;53.254;10.430;2023-09-08T00:39:46;5.27;;;3.67;;
37895;SDS011;23733;53.254;10.430;2023-09-08T00:42:13;6.90;;;4.00;;
37895;SDS011;23733;53.254;10.430;2023-09-08T00:44:39;5.27;;;4.10;;
37895;SDS011;23733;53.254;10.430;2023-09-08T00:47:05;5.73;;;4.10;;
37895;SDS011;23733;53.254;10.430;2023-09-08T00:49:32;5.50;;;4.20;;
37895;SDS011;23733;53.254;10.430;2023-09-08T00:51:58;5.00;;;3.77;;
37895;SDS011;23733;53.254;10.430;2023-09-08T00:54:24;5.20;;;3.67;;
37895;SDS011;23733;53.254;10.430;2023-09-08T00:56:53;5.33;;;3.93;;
37895;SDS011;23733;53.254;10.430;2023-09-08T00:59:22;7.47;;;4.00;;
37895;SDS011;23733;53.254;10.430;2023-09-08T01:01:50;5.07;;;4.17;;
37895;SDS011;23733;53.254;10.430;2023-09-08T01:04:18;6.80;;;4.57;;
37895;SDS011;23733;53.254;10.430;2023-09-08T01:06:44;7.53;;;4.10;;
37895;SDS011;23733;53.254;10.430;2023-09-08T01:09:11;5.43;;;3.93;;
37895;SDS011;23733;53.254;10.430;2023-09-08T01:11:39;8.77;;;4.47;;
37895;SDS011;23733;53.254;10.430;2023-09-08T01:14:05;6.30;;;3.83;;
37895;SDS011;23733;53.254;10.430;2023-09-08T01:16:31;10.73;;;4.23;;
37895;SDS011;23733;53.254;10.430;2023-09-08T01:18:58;6.17;;;4.23;;
37895;SDS011;23733;53.254;10.430;2023-09-08T01:21:45;5.77;;;4.27;;
37895;SDS011;23733;53.254;10.430;2023-09-08T01:26:44;5.80;;;4.30;;
37895;SDS011;23733;53.254;10.430;2023-09-08T01:29:10;5.57;;;4.27;;
37895;SDS011;23733;53.254;10.430;2023-09-08T01:31:38;8.43;;;4.13;;
37895;SDS011;23733;53.254;10.430;2023-09-08T01:34:05;6.03;;;4.73;;
37895;SDS011;23733;53.254;10.430;2023-09-08T01:36:33;6.83;;;4.83;;
37895;SDS011;23733;53.254;10.430;2023-09-08T01:39:00;5.83;;;4.37;;
37895;SDS011;23733;53.254;10.430;2023-09-08T01:41:26;7.33;;;4.43;;
37895;SDS011;23733;53.254;10.430;2023-09-08T01:43:53;5.87;;;4.33;;
37895;SDS011;23733;53.254;10.430;2023-09-08T01:46:20;6.67;;;4.50;;
37895;SDS011;23733;53.254;10.430;2023-09-08T01:48:46;6.07;;;4.23;;
37895;SDS011;23733;53.254;10.430;2023-09-08T01:51:12;6.77;;;4.30;;
37895;SDS011;23733;53.254;10.430;2023-09-08T01:53:39;7.00;;;4.27;;
37895;SDS011;23733;53.254;10.430;2023-09-08T01:56:05;5.30;;;4.27;;
37895;SDS011;23733;53.254;10.430;2023-09-08T01:58:31;6.07;;;4.67;;
37895;SDS011;23733;53.254;10.430;2023-09-08T02:00:59;6.73;;;4.90;;
37895;SDS011;23733;53.254;10.430;2023-09-08T02:03:32;6.20;;;4.53;;
37895;SDS011;23733;53.254;10.430;2023-09-08T02:05:58;8.27;;;4.77;;
37895;SDS011;23733;53.254;10.430;2023-09-08T02:08:25;5.53;;;4.33;;
37895;SDS011;23733;53.254;10.430;2023-09-08T02:10:51;5.90;;;4.33;;
37895;SDS011;23733;53.254;10.430;2023-09-08T02:13:17;6.30;;;4.60;;
37895;SDS011;23733;53.254;10.430;2023-09-08T02:15:43;7.20;;;4.70;;
37895;SDS011;23733;53.254;10.430;2023-09-08T02:18:10;9.17;;;5.07;;
37895;SDS011;23733;53.254;10.430;2023-09-08T02:20:37;6.53;;;4.80;;
37895;SDS011;23733;53.254;10.430;2023-09-08T02:23:04;5.43;;;3.97;;
37895;SDS011;23733;53.254;10.430;2023-09-08T02:25:30;9.07;;;4.80;;
37895;SDS011;23733;53.254;10.430;2023-09-08T02:27:57;5.23;;;4.30;;
37895;SDS011;23733;53.254;10.430;2023-09-08T02:30:23;7.37;;;4.70;;
37895;SDS011;23733;53.254;10.430;2023-09-08T02:32:49;5.70;;;4.87;;
37895;SDS011;23733;53.254;10.430;2023-09-08T02:35:16;9.87;;;4.77;;
37895;SDS011;23733;53.254;10.430;2023-09-08T02:37:42;7.97;;;5.03;;
37895;SDS011;23733;53.254;10.430;2023-09-08T02:40:08;6.10;;;4.83;;
37895;SDS011;23733;53.254;10.430;2023-09-08T02:42:35;10.83;;;4.97;;
37895;SDS011;23733;53.254;10.430;2023-09-08T02:45:01;6.10;;;4.70;;
37895;SDS011;23733;53.254;10.430;2023-09-08T02:47:27;5.70;;;4.77;;
37895;SDS011;23733;53.254;10.430;2023-09-08T02:49:54;9.20;;;5.00;;
37895;SDS011;23733;53.254;10.430;2023-09-08T02:52:20;6.63;;;4.67;;
37895;SDS011;23733;53.254;10.430;2023-09-08T02:54:46;6.90;;;4.97;;
37895;SDS011;23733;53.254;10.430;2023-09-08T02:57:13;7.33;;;5.17;;
37895;SDS011;23733;53.254;10.430;2023-09-08T02:59:39;8.97;;;5.40;;
37895;SDS011;23733;53.254;10.430;2023-09-08T03:02:05;6.93;;;5.20;;
37895;SDS011;23733;53.254;10.430;2023-09-08T03:04:32;7.07;;;5.17;;
37895;SDS011;23733;53.254;10.430;2023-09-08T03:06:58;8.87;;;4.90;;
37895;SDS011;23733;53.254;10.430;2023-09-08T03:09:24;6.53;;;5.30;;
37895;SDS011;23733;53.254;10.430;2023-09-08T03:11:51;8.53;;;4.80;;
37895;SDS011;23733;53.254;10.430;2023-09-08T03:14:17;7.03;;;5.30;;
37895;SDS011;23733;53.254;10.430;2023-09-08T03:16:43;8.67;;;5.30;;
37895;SDS011;23733;53.254;10.430;2023-09-08T03:19:10;9.17;;;4.83;;
37895;SDS011;23733;53.254;10.430;2023-09-08T03:21:36;6.27;;;4.90;;
37895;SDS011;23733;53.254;10.430;2023-09-08T03:24:02;7.20;;;4.87;;
37895;SDS011;23733;53.254;10.430;2023-09-08T03:26:29;7.50;;;5.27;;
37895;SDS011;23733;53.254;10.430;2023-09-08T03:28:55;7.33;;;5.20;;
37895;SDS011;23733;53.254;10.430;2023-09-08T03:31:21;7.73;;;5.30;;
37895;SDS011;23733;53.254;10.430;2023-09-08T03:33:47;11.07;;;5.37;;
37895;SDS011;23733;53.254;10.430;2023-09-08T03:36:14;7.77;;;5.03;;
37895;SDS011;23733;53.254;10.430;2023-09-08T03:38:40;7.07;;;5.07;;
37895;SDS011;23733;53.254;10.430;2023-09-08T03:41:06;6.70;;;5.23;;
37895;SDS011;23733;53.254;10.430;2023-09-08T03:43:33;5.67;;;4.87;;
37895;SDS011;23733;53.254;10.430;2023-09-08T03:45:59;6.60;;;5.10;;
37895;SDS011;23733;53.254;10.430;2023-09-08T03:48:26;5.67;;;5.03;;
37895;SDS011;23733;53.254;10.430;2023-09-08T03:50:52;7.03;;;5.20;;
37895;SDS011;23733;53.254;10.430;2023-09-08T03:53:18;6.40;;;5.23;;
37895;SDS011;23733;53.254;10.430;2023-09-08T03:55:44;8.23;;;5.73;;
37895;SDS011;23733;53.254;10.430;2023-09-08T03:58:10;7.53;;;5.10;;
37895;SDS011;23733;53.254;10.430;2023-09-08T04:00:36;5.23;;;4.60;;
37895;SDS011;23733;53.254;10.430;2023-09-08T04:03:02;9.63;;;4.70;;
37895;SDS011;23733;53.254;10.430;2023-09-08T04:05:29;5.83;;;5.13;;
37895;SDS011;23733;53.254;10.430;2023-09-08T04:07:55;6.37;;;4.53;;
37895;SDS011;23733;53.254;10.430;2023-09-08T04:10:21;9.90;;;5.20;;
37895;SDS011;23733;53.254;10.430;2023-09-08T04:12:47;5.70;;;4.60;;
37895;SDS011;23733;53.254;10.430;2023-09-08T04:15:13;9.70;;;4.87;;
37895;SDS011;23733;53.254;10.430;2023-09-08T04:17:39;6.67;;;4.97;;
37895;SDS011;23733;53.254;10.430;2023-09-08T04:20:05;9.97;;;5.30;;
37895;SDS011;23733;53.254;10.430;2023-09-08T04:22:33;8.27;;;5.00;;
37895;SDS011;23733;53.254;10.430;2023-09-08T04:24:59;5.93;;;4.67;;
37895;SDS011;23733;53.254;10.430;2023-09-08T04:27:25;7.13;;;5.20;;
37895;SDS011;23733;53.254;10.430;2023-09-08T04:29:52;9.03;;;5.30;;
37895;SDS011;23733;53.254;10.430;2023-09-08T04:32:18;7.77;;;5.07;;
37895;SDS011;23733;53.254;10.430;2023-09-08T04:34:44;10.77;;;5.37;;
37895;SDS011;23733;53.254;10.430;2023-09-08T04:37:10;6.40;;;4.93;;
37895;SDS011;23733;53.254;10.430;2023-09-08T04:39:36;9.00;;;5.03;;
37895;SDS011;23733;53.254;10.430;2023-09-08T04:42:05;7.43;;;4.97;;
37895;SDS011;23733;53.254;10.430;2023-09-08T04:44:31;10.23;;;5.57;;
37895;SDS011;23733;53.254;10.430;2023-09-08T04:46:57;6.97;;;5.00;;
37895;SDS011;23733;53.254;10.430;2023-09-08T04:49:24;8.40;;;5.60;;
37895;SDS011;23733;53.254;10.430;2023-09-08T04:51:50;8.37;;;5.93;;
37895;SDS011;23733;53.254;10.430;2023-09-08T04:54:16;6.77;;;5.40;;
37895;SDS011;23733;53.254;10.430;2023-09-08T04:56:43;9.50;;;5.27;;
37895;SDS011;23733;53.254;10.430;2023-09-08T04:59:09;6.93;;;5.53;;
37895;SDS011;23733;53.254;10.430;2023-09-08T05:01:35;8.43;;;5.37;;
37895;SDS011;23733;53.254;10.430;2023-09-08T05:04:03;9.13;;;6.00;;
37895;SDS011;23733;53.254;10.430;2023-09-08T05:06:30;9.03;;;5.57;;
37895;SDS011;23733;53.254;10.430;2023-09-08T05:08:56;10.57;;;5.77;;
37895;SDS011;23733;53.254;10.430;2023-09-08T05:11:22;9.33;;;5.80;;
37895;SDS011;23733;53.254;10.430;2023-09-08T05:13:48;8.83;;;5.90;;
37895;SDS011;23733;53.254;10.430;2023-09-08T05:16:15;8.37;;;5.83;;
37895;SDS011;23733;53.254;10.430;2023-09-08T05:18:44;8.97;;;6.30;;
37895;SDS011;23733;53.254;10.430;2023-09-08T05:21:10;7.20;;;5.80;;
37895;SDS011;23733;53.254;10.430;2023-09-08T05:23:36;7.60;;;5.80;;
37895;SDS011;23733;53.254;10.430;2023-09-08T05:26:03;7.50;;;5.83;;
37895;SDS011;23733;53.254;10.430;2023-09-08T05:28:29;7.93;;;5.50;;
37895;SDS011;23733;53.254;10.430;2023-09-08T05:30:58;10.70;;;5.77;;
37895;SDS011;23733;53.254;10.430;2023-09-08T05:33:24;7.27;;;5.43;;
37895;SDS011;23733;53.254;10.430;2023-09-08T05:35:50;7.43;;;5.67;;
37895;SDS011;23733;53.254;10.430;2023-09-08T05:38:16;10.40;;;6.00;;
37895;SDS011;23733;53.254;10.430;2023-09-08T05:40:43;8.70;;;5.77;;
37895;SDS011;23733;53.254;10.430;2023-09-08T05:43:09;8.37;;;6.03;;
37895;SDS011;23733;53.254;10.430;2023-09-08T05:45:36;8.80;;;5.70;;
37895;SDS011;23733;53.254;10.430;2023-09-08T05:48:02;10.20;;;5.93;;
37895;SDS011;23733;53.254;10.430;2023-09-08T05:50:28;9.10;;;6.10;;
37895;SDS011;23733;53.254;10.430;2023-09-08T05:52:55;8.73;;;6.03;;
37895;SDS011;23733;53.254;10.430;2023-09-08T05:55:21;9.40;;;6.13;;
37895;SDS011;23733;53.254;10.430;2023-09-08T05:57:47;8.57;;;5.67;;
37895;SDS011;23733;53.254;10.430;2023-09-08T06:00:13;12.57;;;6.50;;
37895;SDS011;23733;53.254;10.430;2023-09-08T06:02:40;7.17;;;5.77;;
37895;SDS011;23733;53.254;10.430;2023-09-08T06:05:07;9.40;;;6.17;;
37895;SDS011;23733;53.254;10.430;2023-09-08T06:07:33;8.40;;;6.37;;
37895;SDS011;23733;53.254;10.430;2023-09-08T06:09:59;13.00;;;6.90;;
37895;SDS011;23733;53.254;10.430;2023-09-08T06:12:25;9.20;;;5.90;;
37895;SDS011;23733;53.254;10.430;2023-09-08T06:14:51;8.50;;;6.03;;
37895;SDS011;23733;53.254;10.430;2023-09-08T06:17:18;10.03;;;6.10;;
37895;SDS011;23733;53.254;10.430;2023-09-08T06:19:44;12.67;;;6.27;;
37895;SDS011;23733;53.254;10.430;2023-09-08T06:22:10;8.73;;;5.93;;
37895;SDS011;23733;53.254;10.430;2023-09-08T06:24:36;9.80;;;5.90;;
37895;SDS011;23733;53.254;10.430;2023-09-08T06:27:03;8.63;;;5.73;;
37895;SDS011;23733;53.254;10.430;2023-09-08T06:29:29;7.53;;;5.90;;
37895;SDS011;23733;53.254;10.430;2023-09-08T06:31:55;10.63;;;5.73;;
37895;SDS011;23733;53.254;10.430;2023-09-08T06:34:21;8.67;;;5.40;;
37895;SDS011;23733;53.254;10.430;2023-09-08T06:36:48;10.73;;;5.40;;
37895;SDS011;23733;53.254;10.430;2023-09-08T06:39:14;8.03;;;5.73;;
37895;SDS011;23733;53.254;10.430;2023-09-08T06:41:40;9.43;;;5.60;;
37895;SDS011;23733;53.254;10.430;2023-09-08T06:44:06;8.10;;;5.73;;
37895;SDS011;23733;53.254;10.430;2023-09-08T06:46:32;9.17;;;6.27;;
37895;SDS011;23733;53.254;10.430;2023-09-08T06:48:58;7.93;;;5.73;;
37895;SDS011;23733;53.254;10.430;2023-09-08T06:51:24;12.13;;;5.30;;
37895;SDS011;23733;53.254;10.430;2023-09-08T06:53:56;15.00;;;5.30;;
37895;SDS011;23733;53.254;10.430;2023-09-08T06:56:23;8.50;;;5.80;;
37895;SDS011;23733;53.254;10.430;2023-09-08T06:58:49;7.10;;;5.17;;
37895;SDS011;23733;53.254;10.430;2023-09-08T07:01:16;5.90;;;5.03;;
37895;SDS011;23733;53.254;10.430;2023-09-08T07:03:42;7.10;;;5.67;;
37895;SDS011;23733;53.254;10.430;2023-09-08T07:06:09;8.10;;;5.20;;
37895;SDS011;23733;53.254;10.430;2023-09-08T07:08:35;7.30;;;5.67;;
37895;SDS011;23733;53.254;10.430;2023-09-08T07:11:01;9.10;;;5.23;;
37895;SDS011;23733;53.254;10.430;2023-09-08T07:13:28;13.43;;;4.93;;
37895;SDS011;23733;53.254;10.430;2023-09-08T07:15:54;9.33;;;5.47;;
37895;SDS011;23733;53.254;10.430;2023-09-08T07:18:20;8.17;;;4.90;;
37895;SDS011;23733;53.254;10.430;2023-09-08T07:20:47;9.10;;;5.27;;
37895;SDS011;23733;53.254;10.430;2023-09-08T07:23:16;8.97;;;5.10;;
37895;SDS011;23733;53.254;10.430;2023-09-08T07:25:49;6.20;;;4.77;;
37895;SDS011;23733;53.254;10.430;2023-09-08T07:28:16;8.03;;;4.90;;
37895;SDS011;23733;53.254;10.430;2023-09-08T07:30:42;6.07;;;5.07;;
37895;SDS011;23733;53.254;10.430;2023-09-08T07:33:09;6.80;;;5.00;;
37895;SDS011;23733;53.254;10.430;2023-09-08T07:35:36;5.57;;;4.47;;
37895;SDS011;23733;53.254;10.430;2023-09-08T07:38:03;6.17;;;4.80;;
37895;SDS011;23733;53.254;10.430;2023-09-08T07:40:29;10.50;;;5.23;;
37895;SDS011;23733;53.254;10.430;2023-09-08T07:42:55;5.93;;;4.70;;
37895;SDS011;23733;53.254;10.430;2023-09-08T07:45:22;5.57;;;4.43;;
37895;SDS011;23733;53.254;10.430;2023-09-08T07:47:48;6.47;;;4.77;;
37895;SDS011;23733;53.254;10.430;2023-09-08T07:52:45;12.63;;;5.37;;
37895;SDS011;23733;53.254;10.430;2023-09-08T07:55:11;7.57;;;4.57;;
37895;SDS011;23733;53.254;10.430;2023-09-08T07:57:38;6.63;;;4.80;;
37895;SDS011;23733;53.254;10.430;2023-09-08T08:00:04;9.83;;;4.87;;
37895;SDS011;23733;53.254;10.430;2023-09-08T08:02:31;8.13;;;4.37;;
37895;SDS011;23733;53.254;10.430;2023-09-08T08:04:57;7.73;;;5.50;;
37895;SDS011;23733;53.254;10.430;2023-09-08T08:07:23;6.30;;;4.83;;
37895;SDS011;23733;53.254;10.430;2023-09-08T08:09:50;5.77;;;4.10;;
37895;SDS011;23733;53.254;10.430;2023-09-08T08:12:16;6.20;;;4.53;;
37895;SDS011;23733;53.254;10.430;2023-09-08T08:14:42;8.77;;;4.57;;
37895;SDS011;23733;53.254;10.430;2023-09-08T08:17:08;6.00;;;4.60;;
37895;SDS011;23733;53.254;10.430;2023-09-08T08:19:36;6.63;;;4.37;;
37895;SDS011;23733;53.254;10.430;2023-09-08T08:22:02;9.93;;;4.47;;
37895;SDS011;23733;53.254;10.430;2023-09-08T08:24:29;7.90;;;4.77;;
37895;SDS011;23733;53.254;10.430;2023-09-08T08:26:55;6.13;;;4.80;;
37895;SDS011;23733;53.254;10.430;2023-09-08T08:29:21;7.57;;;5.00;;
37895;SDS011;23733;53.254;10.430;2023-09-08T08:31:48;6.77;;;4.67;;
37895;SDS011;23733;53.254;10.430;2023-09-08T08:34:14;6.97;;;4.70;;
37895;SDS011;23733;53.254;10.430;2023-09-08T08:36:42;8.00;;;4.50;;
37895;SDS011;23733;53.254;10.430;2023-09-08T08:39:08;7.03;;;5.17;;
37895;SDS011;23733;53.254;10.430;2023-09-08T08:41:35;8.33;;;4.47;;
37895;SDS011;23733;53.254;10.430;2023-09-08T08:44:07;7.13;;;4.30;;
37895;SDS011;23733;53.254;10.430;2023-09-08T08:46:36;7.00;;;4.47;;
37895;SDS011;23733;53.254;10.430;2023-09-08T08:49:03;8.63;;;5.10;;
37895;SDS011;23733;53.254;10.430;2023-09-08T08:51:32;10.67;;;4.80;;
37895;SDS011;23733;53.254;10.430;2023-09-08T08:54:01;6.50;;;4.43;;
37895;SDS011;23733;53.254;10.430;2023-09-08T08:56:30;6.60;;;4.20;;
37895;SDS011;23733;53.254;10.430;2023-09-08T08:58:57;5.83;;;4.30;;
37895;SDS011;23733;53.254;10.430;2023-09-08T09:01:24;5.53;;;4.13;;
37895;SDS011;23733;53.254;10.430;2023-09-08T09:03:51;5.10;;;4.20;;
37895;SDS011;23733;53.254;10.430;2023-09-08T09:06:18;7.47;;;4.40;;
37895;SDS011;23733;53.254;10.430;2023-09-08T09:08:45;9.33;;;4.70;;
37895;SDS011;23733;53.254;10.430;2023-09-08T09:11:12;6.60;;;4.17;;
37895;SDS011;23733;53.254;10.430;2023-09-08T09:13:38;6.00;;;4.37;;
37895;SDS011;23733;53.254;10.430;2023-09-08T09:16:05;7.43;;;4.10;;
37895;SDS011;23733;53.254;10.430;2023-09-08T09:18:54;6.10;;;4.47;;
37895;SDS011;23733;53.254;10.430;2023-09-08T09:21:21;5.40;;;4.00;;
37895;SDS011;23733;53.254;10.430;2023-09-08T09:23:47;10.40;;;4.73;;
37895;SDS011;23733;53.254;10.430;2023-09-08T09:26:22;6.97;;;4.20;;
37895;SDS011;23733;53.254;10.430;2023-09-08T09:28:49;9.10;;;4.75;;
37895;SDS011;23733;53.254;10.430;2023-09-08T09:31:17;11.17;;;4.37;;
37895;SDS011;23733;53.254;10.430;2023-09-08T09:33:44;7.10;;;4.57;;
37895;SDS011;23733;53.254;10.430;2023-09-08T09:36:19;5.43;;;4.38;;
37895;SDS011;23733;53.254;10.430;2023-09-08T09:38:46;8.27;;;4.50;;
37895;SDS011;23733;53.254;10.430;2023-09-08T09:41:13;7.47;;;4.80;;
37895;SDS011;23733;53.254;10.430;2023-09-08T09:43:39;8.35;;;4.45;;
37895;SDS011;23733;53.254;10.430;2023-09-08T09:46:09;6.15;;;3.97;;
37895;SDS011;23733;53.254;10.430;2023-09-08T09:48:35;7.13;;;4.70;;
37895;SDS011;23733;53.254;10.430;2023-09-08T09:51:35;5.70;;;4.43;;
37895;SDS011;23733;53.254;10.430;2023-09-08T09:53:54;6.63;;;4.47;;
37895;SDS011;23733;53.254;10.430;2023-09-08T09:56:22;5.82;;;3.50;;
37895;SDS011;23733;53.254;10.430;2023-09-08T09:58:50;8.00;;;4.20;;
37895;SDS011;23733;53.254;10.430;2023-09-08T10:01:19;4.57;;;3.90;;
37895;SDS011;23733;53.254;10.430;2023-09-08T10:03:46;5.35;;;3.97;;
37895;SDS011;23733;53.254;10.430;2023-09-08T10:06:14;5.28;;;4.00;;
37895;SDS011;23733;53.254;10.430;2023-09-08T10:08:42;6.32;;;4.40;;
37895;SDS011;23733;53.254;10.430;2023-09-08T10:11:09;5.75;;;4.18;;
37895;SDS011;23733;53.254;10.430;2023-09-08T10:13:42;5.07;;;3.70;;
37895;SDS011;23733;53.254;10.430;2023-09-08T10:16:09;4.57;;;3.80;;
37895;SDS011;23733;53.254;10.430;2023-09-08T10:18:39;11.27;;;3.78;;
37895;SDS011;23733;53.254;10.430;2023-09-08T10:21:06;3.97;;;3.40;;
37895;SDS011;23733;53.254;10.430;2023-09-08T10:23:35;4.88;;;3.63;;
37895;SDS011;23733;53.254;10.430;2023-09-08T10:26:02;4.07;;;3.28;;
37895;SDS011;23733;53.254;10.430;2023-09-08T10:28:30;4.57;;;3.55;;
37895;SDS011;23733;53.254;10.430;2023-09-08T10:30:57;6.15;;;3.60;;
37895;SDS011;23733;53.254;10.430;2023-09-08T10:33:24;5.47;;;4.07;;
37895;SDS011;23733;53.254;10.430;2023-09-08T10:35:51;6.43;;;3.50;;
37895;SDS011;23733;53.254;10.430;2023-09-08T10:38:21;4.32;;;3.20;;
37895;SDS011;23733;53.254;10.430;2023-09-08T10:40:49;5.05;;;3.70;;
37895;SDS011;23733;53.254;10.430;2023-09-08T10:43:15;8.23;;;3.35;;
37895;SDS011;23733;53.254;10.430;2023-09-08T10:45:43;4.13;;;3.60;;
37895;SDS011;23733;53.254;10.430;2023-09-08T10:48:09;7.82;;;3.80;;
37895;SDS011;23733;53.254;10.430;2023-09-08T10:50:38;9.20;;;4.32;;
37895;SDS011;23733;53.254;10.430;2023-09-08T10:53:18;5.07;;;3.33;;
37895;SDS011;23733;53.254;10.430;2023-09-08T10:55:45;4.13;;;3.20;;
37895;SDS011;23733;53.254;10.430;2023-09-08T10:58:31;4.60;;;3.47;;
37895;SDS011;23733;53.254;10.430;2023-09-08T11:00:59;5.78;;;3.40;;
37895;SDS011;23733;53.254;10.430;2023-09-08T11:06:05;7.25;;;3.40;;
37895;SDS011;23733;53.254;10.430;2023-09-08T11:08:40;3.28;;;2.97;;
37895;SDS011;23733;53.254;10.430;2023-09-08T11:11:06;7.28;;;3.30;;
37895;SDS011;23733;53.254;10.430;2023-09-08T11:13:33;6.47;;;3.42;;
37895;SDS011;23733;53.254;10.430;2023-09-08T11:15:59;5.13;;;3.55;;
37895;SDS011;23733;53.254;10.430;2023-09-08T11:18:28;7.03;;;3.10;;
37895;SDS011;23733;53.254;10.430;2023-09-08T11:20:55;4.57;;;3.15;;
37895;SDS011;23733;53.254;10.430;2023-09-08T11:23:21;3.60;;;2.80;;
37895;SDS011;23733;53.254;10.430;2023-09-08T11:25:49;3.53;;;2.95;;
37895;SDS011;23733;53.254;10.430;2023-09-08T11:28:16;5.47;;;3.33;;
37895;SDS011;23733;53.254;10.430;2023-09-08T11:30:42;4.22;;;2.97;;
37895;SDS011;23733;53.254;10.430;2023-09-08T11:33:15;4.93;;;3.30;;
37895;SDS011;23733;53.254;10.430;2023-09-08T11:35:42;3.78;;;2.70;;
37895;SDS011;23733;53.254;10.430;2023-09-08T11:38:12;6.47;;;3.00;;
37895;SDS011;23733;53.254;10.430;2023-09-08T11:40:38;5.03;;;3.28;;
37895;SDS011;23733;53.254;10.430;2023-09-08T11:43:05;3.42;;;2.90;;
37895;SDS011;23733;53.254;10.430;2023-09-08T11:45:36;3.70;;;2.70;;
37895;SDS011;23733;53.254;10.430;2023-09-08T11:48:03;3.00;;;2.60;;
37895;SDS011;23733;53.254;10.430;2023-09-08T11:50:30;7.75;;;2.92;;
37895;SDS011;23733;53.254;10.430;2023-09-08T11:52:57;4.75;;;3.25;;
37895;SDS011;23733;53.254;10.430;2023-09-08T11:55:24;3.75;;;2.85;;
37895;SDS011;23733;53.254;10.430;2023-09-08T11:57:54;3.63;;;3.10;;
37895;SDS011;23733;53.254;10.430;2023-09-08T12:00:26;5.38;;;2.90;;
37895;SDS011;23733;53.254;10.430;2023-09-08T12:02:53;3.60;;;3.00;;
37895;SDS011;23733;53.254;10.430;2023-09-08T12:05:23;6.75;;;3.10;;
37895;SDS011;23733;53.254;10.430;2023-09-08T12:07:50;5.13;;;3.10;;
37895;SDS011;23733;53.254;10.430;2023-09-08T12:10:17;4.38;;;3.15;;
37895;SDS011;23733;53.254;10.430;2023-09-08T12:12:44;6.13;;;3.33;;
37895;SDS011;23733;53.254;10.430;2023-09-08T12:15:11;4.18;;;3.05;;
37895;SDS011;23733;53.254;10.430;2023-09-08T12:17:49;7.00;;;3.20;;
37895;SDS011;23733;53.254;10.430;2023-09-08T12:20:16;4.13;;;3.33;;
37895;SDS011;23733;53.254;10.430;2023-09-08T12:22:49;6.13;;;3.17;;
37895;SDS011;23733;53.254;10.430;2023-09-08T12:25:16;5.43;;;3.60;;
37895;SDS011;23733;53.254;10.430;2023-09-08T12:27:42;7.63;;;3.17;;
37895;SDS011;23733;53.254;10.430;2023-09-08T12:30:15;4.38;;;3.35;;
37895;SDS011;23733;53.254;10.430;2023-09-08T12:32:42;5.47;;;3.20;;
37895;SDS011;23733;53.254;10.430;2023-09-08T12:35:08;4.38;;;3.17;;
37895;SDS011;23733;53.254;10.430;2023-09-08T12:37:34;3.65;;;3.30;;
37895;SDS011;23733;53.254;10.430;2023-09-08T12:40:02;7.28;;;3.60;;
37895;SDS011;23733;53.254;10.430;2023-09-08T12:42:29;5.63;;;3.40;;
37895;SDS011;23733;53.254;10.430;2023-09-08T12:44:55;4.18;;;3.35;;
37895;SDS011;23733;53.254;10.430;2023-09-08T12:47:22;4.20;;;3.05;;
37895;SDS011;23733;53.254;10.430;2023-09-08T12:49:49;3.95;;;3.22;;
37895;SDS011;23733;53.254;10.430;2023-09-08T12:52:16;6.00;;;3.17;;
37895;SDS011;23733;53.254;10.430;2023-09-08T12:54:42;3.88;;;3.30;;
37895;SDS011;23733;53.254;10.430;2023-09-08T12:57:08;7.22;;;3.20;;
37895;SDS011;23733;53.254;10.430;2023-09-08T12:59:35;5.50;;;3.38;;
37895;SDS011;23733;53.254;10.430;2023-09-08T13:02:01;3.78;;;3.05;;
37895;SDS011;23733;53.254;10.430;2023-09-08T13:04:27;3.72;;;3.25;;
37895;SDS011;23733;53.254;10.430;2023-09-08T13:06:53;4.32;;;3.25;;
37895;SDS011;23733;53.254;10.430;2023-09-08T13:09:20;4.78;;;3.35;;
37895;SDS011;23733;53.254;10.430;2023-09-08T13:11:47;5.18;;;3.20;;
37895;SDS011;23733;53.254;10.430;2023-09-08T13:14:13;4.95;;;3.40;;
37895;SDS011;23733;53.254;10.430;2023-09-08T13:16:39;6.78;;;3.60;;
37895;SDS011;23733;53.254;10.430;2023-09-08T13:19:06;7.80;;;3.10;;
37895;SDS011;23733;53.254;10.430;2023-09-08T13:21:32;5.00;;;3.38;;
37895;SDS011;23733;53.254;10.430;2023-09-08T13:23:58;5.32;;;3.33;;
37895;SDS011;23733;53.254;10.430;2023-09-08T13:26:25;6.32;;;3.28;;
37895;SDS011;23733;53.254;10.430;2023-09-08T13:28:51;3.22;;;2.90;;
37895;SDS011;23733;53.254;10.430;2023-09-08T13:31:18;6.07;;;3.30;;
37895;SDS011;23733;53.254;10.430;2023-09-08T13:33:44;5.45;;;3.78;;
37895;SDS011;23733;53.254;10.430;2023-09-08T13:36:10;5.68;;;3.13;;
37895;SDS011;23733;53.254;10.430;2023-09-08T13:38:36;6.20;;;3.10;;
37895;SDS011;23733;53.254;10.430;2023-09-08T13:41:03;3.60;;;3.20;;
37895;SDS011;23733;53.254;10.430;2023-09-08T13:43:29;4.32;;;3.03;;
37895;SDS011;23733;53.254;10.430;2023-09-08T13:45:55;7.90;;;3.47;;
37895;SDS011;23733;53.254;10.430;2023-09-08T13:48:22;4.75;;;3.33;;
37895;SDS011;23733;53.254;10.430;2023-09-08T13:50:48;3.72;;;3.08;;
37895;SDS011;23733;53.254;10.430;2023-09-08T13:53:14;4.63;;;3.30;;
37895;SDS011;23733;53.254;10.430;2023-09-08T13:55:41;6.10;;;3.33;;
37895;SDS011;23733;53.254;10.430;2023-09-08T13:58:07;6.75;;;3.15;;
37895;SDS011;23733;53.254;10.430;2023-09-08T14:00:33;7.00;;;3.30;;
37895;SDS011;23733;53.254;10.430;2023-09-08T14:03:00;5.38;;;3.20;;
37895;SDS011;23733;53.254;10.430;2023-09-08T14:05:26;14.80;;;3.70;;
37895;SDS011;23733;53.254;10.430;2023-09-08T14:07:52;5.13;;;3.08;;
37895;SDS011;23733;53.254;10.430;2023-09-08T14:10:19;5.55;;;3.30;;
37895;SDS011;23733;53.254;10.430;2023-09-08T14:12:45;3.90;;;2.88;;
37895;SDS011;23733;53.254;10.430;2023-09-08T14:15:11;6.03;;;3.17;;
37895;SDS011;23733;53.254;10.430;2023-09-08T14:17:40;8.13;;;3.40;;
37895;SDS011;23733;53.254;10.430;2023-09-08T14:20:07;5.78;;;3.28;;
37895;SDS011;23733;53.254;10.430;2023-09-08T14:22:33;7.07;;;3.30;;
37895;SDS011;23733;53.254;10.430;2023-09-08T14:25:00;9.05;;;3.15;;
37895;SDS011;23733;53.254;10.430;2023-09-08T14:27:26;3.45;;;2.83;;
37895;SDS011;23733;53.254;10.430;2023-09-08T14:29:52;6.53;;;2.80;;
37895;SDS011;23733;53.254;10.430;2023-09-08T14:32:20;3.95;;;2.90;;
37895;SDS011;23733;53.254;10.430;2023-09-08T14:34:46;3.90;;;3.35;;
37895;SDS011;23733;53.254;10.430;2023-09-08T14:37:14;4.07;;;3.20;;
37895;SDS011;23733;53.254;10.430;2023-09-08T14:39:40;3.40;;;3.10;;